Time;durP1;ratioP1;P1;durP2;ratioP2;P2;SDS_P1;SDS_P2;PMS_P1;PMS_P2;Temp;Humidity;BMP_temperature;BMP_pressure;BME280_temperature;BME280_humidity;BME280_pressure;Samples;Min_cycle;Max_cycle;Signal;HPM_P1;HPM_P2
2022/11/23 00:00:44;;;;;;;15.10;7.20;;;5.60;99.90;;;;;;5091855;28;20044;-70
2022/11/23 00:03:14;;;;;;;19.02;7.82;;;5.60;99.90;;;;;;5096481;28;20035;-70
2022/11/23 00:05:40;;;;;;;19.98;8.18;;;5.60;99.90;;;;;;5085584;28;20027;-70
2022/11/23 00:08:06;;;;;;;17.10;7.45;;;5.70;99.90;;;;;;5084917;28;20408;-70
2022/11/23 00:10:31;;;;;;;19.58;7.15;;;5.70;99.90;;;;;;5098038;28;20031;-70
2022/11/23 00:12:57;;;;;;;19.25;6.63;;;5.70;99.90;;;;;;5106118;28;20039;-71
2022/11/23 00:15:23;;;;;;;14.90;6.85;;;5.70;99.90;;;;;;5105869;28;20028;-70
2022/11/23 00:17:49;;;;;;;14.95;6.50;;;5.80;99.90;;;;;;5106284;28;20027;-70
2022/11/23 00:20:15;;;;;;;15.07;6.97;;;5.80;99.90;;;;;;5093837;28;20056;-72
2022/11/23 00:22:41;;;;;;;17.73;6.70;;;5.80;99.90;;;;;;5102767;28;20059;-70
2022/11/23 00:25:07;;;;;;;24.70;7.32;;;5.80;99.90;;;;;;5104360;28;20028;-70
2022/11/23 00:27:32;;;;;;;15.57;6.75;;;5.90;99.90;;;;;;5096169;28;20020;-71
2022/11/23 00:30:01;;;;;;;21.50;7.38;;;5.90;99.90;;;;;;5105836;28;20100;-70
2022/11/23 00:32:28;;;;;;;14.80;7.00;;;5.90;99.90;;;;;;5093277;28;20081;-69
2022/11/23 00:34:54;;;;;;;14.70;6.82;;;5.90;99.90;;;;;;5087048;28;20038;-71
2022/11/23 00:37:20;;;;;;;15.77;6.80;;;5.90;99.90;;;;;;5085354;28;20070;-70
2022/11/23 00:39:46;;;;;;;17.85;7.28;;;5.90;99.90;;;;;;5085119;28;20044;-71
2022/11/23 00:42:11;;;;;;;14.48;6.70;;;5.90;99.90;;;;;;5099138;28;20061;-72
2022/11/23 00:44:37;;;;;;;14.00;6.40;;;5.90;99.90;;;;;;5095807;28;20137;-71
2022/11/23 00:47:02;;;;;;;13.15;5.60;;;5.90;99.90;;;;;;5085436;28;20084;-70
2022/11/23 00:49:28;;;;;;;16.90;6.95;;;5.90;99.90;;;;;;5085143;28;20031;-70
2022/11/23 00:51:53;;;;;;;17.33;6.22;;;5.90;99.90;;;;;;5084264;28;20035;-72
2022/11/23 00:54:19;;;;;;;15.30;6.60;;;6.00;99.90;;;;;;5084652;28;20086;-70
2022/11/23 00:56:45;;;;;;;17.58;6.90;;;6.00;99.90;;;;;;5084538;28;20020;-72
2022/11/23 00:59:10;;;;;;;15.25;5.90;;;5.90;99.90;;;;;;5084887;28;20032;-71
2022/11/23 01:01:36;;;;;;;17.45;5.70;;;6.00;99.90;;;;;;5085107;28;20028;-70
2022/11/23 01:04:04;;;;;;;21.60;7.10;;;6.00;99.90;;;;;;5084934;28;20705;-70
2022/11/23 01:06:38;;;;;;;17.38;6.97;;;6.00;99.90;;;;;;5084073;28;20383;-70
2022/11/23 01:09:16;;;;;;;12.25;6.40;;;6.00;99.90;;;;;;5084565;28;20075;-70
2022/11/23 01:11:43;;;;;;;16.80;6.22;;;6.00;99.90;;;;;;5099035;28;20426;-69
2022/11/23 01:14:09;;;;;;;15.10;6.38;;;6.00;99.90;;;;;;5102886;28;20184;-70
2022/11/23 01:16:38;;;;;;;17.02;6.70;;;6.00;99.90;;;;;;5095920;28;21093;-68
2022/11/23 01:19:12;;;;;;;13.57;6.40;;;6.10;99.90;;;;;;5083731;28;20093;-69
2022/11/23 01:21:38;;;;;;;;;;;6.10;99.90;;;;;;5084261;28;20480;-70
2022/11/23 01:24:09;;;;;;;16.40;5.97;;;6.10;99.90;;;;;;5084210;28;19904;-70
2022/11/23 01:26:34;;;;;;;12.05;5.82;;;6.10;99.90;;;;;;5084276;28;20028;-70
2022/11/23 01:29:00;;;;;;;23.67;7.13;;;6.10;99.90;;;;;;5084287;28;20082;-71
2022/11/23 01:31:26;;;;;;;18.08;6.25;;;6.10;99.90;;;;;;5083595;28;20029;-71
2022/11/23 01:33:57;;;;;;;16.42;6.40;;;6.10;99.90;;;;;;5091758;28;20488;-69
2022/11/23 01:36:27;;;;;;;14.48;6.80;;;6.00;99.90;;;;;;5102634;28;20024;-70
2022/11/23 01:38:53;;;;;;;18.42;6.95;;;6.00;99.90;;;;;;5084084;28;20170;-71
2022/11/23 01:41:21;;;;;;;18.00;6.63;;;6.00;99.90;;;;;;5083711;28;20037;-71
2022/11/23 01:43:47;;;;;;;18.40;7.15;;;6.00;99.90;;;;;;5092692;28;20091;-72
2022/11/23 01:46:13;;;;;;;20.85;7.38;;;6.00;99.90;;;;;;5096951;28;20024;-70
2022/11/23 01:48:44;;;;;;;20.63;6.95;;;6.00;99.90;;;;;;5089757;28;20079;-71
2022/11/23 01:51:32;;;;;;;13.63;5.70;;;6.00;99.90;;;;;;5090017;28;20036;-72
2022/11/23 01:54:03;;;;;;;15.15;6.30;;;6.00;99.90;;;;;;5083803;28;20028;-69
2022/11/23 01:56:37;;;;;;;19.55;6.43;;;6.00;99.90;;;;;;5083636;28;20032;-69
2022/11/23 01:59:09;;;;;;;17.77;6.30;;;5.90;99.90;;;;;;5083070;28;20017;-69
2022/11/23 02:01:35;;;;;;;15.88;6.88;;;5.90;99.90;;;;;;5083270;28;20020;-69
2022/11/23 02:04:01;;;;;;;13.23;6.80;;;5.90;99.90;;;;;;5083588;28;20036;-70
2022/11/23 02:06:27;;;;;;;17.10;6.63;;;5.90;99.90;;;;;;5082467;28;20021;-69
2022/11/23 02:08:54;;;;;;;14.70;6.28;;;5.90;99.90;;;;;;5096887;28;20039;-70
2022/11/23 02:11:20;;;;;;;19.40;6.25;;;6.00;99.90;;;;;;5103434;28;20039;-70
2022/11/23 02:13:48;;;;;;;18.67;6.90;;;5.90;99.90;;;;;;5103532;28;20035;-70
2022/11/23 02:16:16;;;;;;;28.20;7.40;;;5.90;99.90;;;;;;5095472;28;20028;-69
2022/11/23 02:18:44;;;;;;;16.50;6.53;;;5.90;99.90;;;;;;5083507;28;20035;-70
2022/11/23 02:21:10;;;;;;;18.48;6.45;;;5.90;99.90;;;;;;5084843;28;20107;-71
2022/11/23 02:23:45;;;;;;;14.35;6.63;;;5.90;99.90;;;;;;5083885;28;20074;-68
2022/11/23 02:26:19;;;;;;;14.93;6.15;;;5.90;99.90;;;;;;5083125;28;20037;-71
2022/11/23 02:28:59;;;;;;;18.15;6.68;;;5.90;99.90;;;;;;5082722;28;20080;-70
2022/11/23 02:31:25;;;;;;;12.48;5.28;;;5.90;99.90;;;;;;5083529;28;20032;-70
2022/11/23 02:33:50;;;;;;;13.77;5.78;;;5.90;99.90;;;;;;5082634;28;20056;-69
2022/11/23 02:36:39;;;;;;;22.45;6.53;;;6.00;99.90;;;;;;5082577;28;20392;-70
2022/11/23 02:39:11;;;;;;;13.30;5.95;;;5.90;99.90;;;;;;5085582;28;20040;-69
2022/11/23 02:41:43;;;;;;;13.18;5.18;;;6.00;99.90;;;;;;5088817;28;20093;-69
2022/11/23 02:44:25;;;;;;;19.23;5.93;;;6.00;99.90;;;;;;5082653;28;20025;-70
2022/11/23 02:46:52;;;;;;;11.73;5.90;;;5.90;99.90;;;;;;5082603;28;20025;-70
2022/11/23 02:49:17;;;;;;;12.18;6.10;;;6.00;99.90;;;;;;5082742;28;20033;-70
2022/11/23 02:51:43;;;;;;;14.18;5.35;;;6.00;99.90;;;;;;5083180;28;20042;-69
2022/11/23 02:54:08;;;;;;;12.77;5.65;;;6.00;99.90;;;;;;5082799;28;20028;-70
2022/11/23 02:56:34;;;;;;;16.75;6.47;;;6.00;99.90;;;;;;5082257;28;20063;-70
2022/11/23 02:59:00;;;;;;;11.27;5.50;;;6.00;99.90;;;;;;5082922;28;20025;-70
2022/11/23 03:01:26;;;;;;;15.25;5.13;;;6.00;99.90;;;;;;5081074;28;20048;-68
2022/11/23 03:03:53;;;;;;;9.00;4.38;;;6.00;99.90;;;;;;5082216;28;20040;-71
2022/11/23 03:06:18;;;;;;;16.83;5.45;;;6.00;99.90;;;;;;5082957;28;20028;-69
2022/11/23 03:08:44;;;;;;;15.85;5.38;;;6.00;99.90;;;;;;5081539;28;20157;-70
2022/11/23 03:11:10;;;;;;;12.70;4.78;;;6.10;99.90;;;;;;5082383;28;20021;-68
2022/11/23 03:13:35;;;;;;;13.35;5.05;;;6.10;99.90;;;;;;5082090;28;20485;-69
2022/11/23 03:16:01;;;;;;;14.95;5.63;;;6.10;99.90;;;;;;5083980;28;20043;-70
2022/11/23 03:18:27;;;;;;;10.45;4.78;;;6.10;99.90;;;;;;5090735;28;20056;-71
2022/11/23 03:20:52;;;;;;;8.75;4.57;;;6.10;99.90;;;;;;5082182;28;20052;-69
2022/11/23 03:23:18;;;;;;;13.20;5.45;;;6.10;99.90;;;;;;5081787;28;20064;-69
2022/11/23 03:25:53;;;;;;;10.05;4.35;;;6.10;99.90;;;;;;5082827;28;20052;-69
2022/11/23 03:28:19;;;;;;;10.57;4.40;;;6.10;99.90;;;;;;5083114;28;20127;-69
2022/11/23 03:30:44;;;;;;;12.30;5.03;;;6.20;99.90;;;;;;5081926;28;20049;-69
2022/11/23 03:33:10;;;;;;;8.38;4.30;;;6.20;99.90;;;;;;5082422;28;20032;-68
2022/11/23 03:35:36;;;;;;;14.07;5.05;;;6.20;99.90;;;;;;5081782;28;20035;-71
2022/11/23 03:38:02;;;;;;;13.60;4.70;;;6.20;99.90;;;;;;5082611;28;20028;-69
2022/11/23 03:40:28;;;;;;;12.23;4.53;;;6.30;99.90;;;;;;5082069;28;20050;-69
2022/11/23 03:42:53;;;;;;;11.98;4.28;;;6.20;99.90;;;;;;5081964;28;20046;-71
2022/11/23 03:45:19;;;;;;;11.10;4.25;;;6.20;99.90;;;;;;5082439;28;20024;-70
2022/11/23 03:47:45;;;;;;;12.18;4.30;;;6.30;99.90;;;;;;5082188;28;20108;-70
2022/11/23 03:50:10;;;;;;;11.52;4.75;;;6.30;99.90;;;;;;5081591;28;20024;-70
2022/11/23 03:52:36;;;;;;;14.57;5.18;;;6.30;99.90;;;;;;5082178;28;20090;-67
2022/11/23 03:55:02;;;;;;;11.65;4.07;;;6.30;99.90;;;;;;5081313;28;20021;-69
2022/11/23 03:57:27;;;;;;;10.55;4.25;;;6.30;99.90;;;;;;5082117;28;20039;-69
2022/11/23 03:59:53;;;;;;;9.18;4.15;;;6.30;99.90;;;;;;5079690;28;20127;-70
2022/11/23 04:02:19;;;;;;;9.32;3.78;;;6.20;99.90;;;;;;5082081;28;20025;-71
2022/11/23 04:04:45;;;;;;;16.17;5.03;;;6.30;99.90;;;;;;5082430;28;20025;-68
2022/11/23 04:07:11;;;;;;;17.52;4.88;;;6.30;99.90;;;;;;5081496;28;20082;-72
2022/11/23 04:09:36;;;;;;;13.13;4.65;;;6.30;99.90;;;;;;5081757;28;20020;-70
2022/11/23 04:12:02;;;;;;;10.40;4.70;;;6.30;99.90;;;;;;5079839;28;20028;-70
2022/11/23 04:14:28;;;;;;;11.10;5.13;;;6.20;99.90;;;;;;5081784;28;20028;-70
2022/11/23 04:16:54;;;;;;;10.52;5.05;;;6.30;99.90;;;;;;5082004;28;20054;-70
2022/11/23 04:19:19;;;;;;;13.63;4.82;;;6.30;99.90;;;;;;5081574;28;20028;-70
2022/11/23 04:21:46;;;;;;;10.32;4.97;;;6.30;99.90;;;;;;5081683;28;20051;-69
2022/11/23 04:24:11;;;;;;;11.55;5.07;;;6.20;99.90;;;;;;5083367;28;20027;-71
2022/11/23 04:26:37;;;;;;;8.88;4.88;;;6.30;99.90;;;;;;5100760;28;20030;-69
2022/11/23 04:29:02;;;;;;;11.73;5.25;;;6.20;99.90;;;;;;5095517;28;20139;-69
2022/11/23 04:31:28;;;;;;;11.85;4.50;;;6.30;99.90;;;;;;5084587;28;20036;-70
2022/11/23 04:33:55;;;;;;;9.07;5.22;;;6.30;99.90;;;;;;5086584;28;20085;-70
2022/11/23 04:36:21;;;;;;;9.80;5.10;;;6.30;99.90;;;;;;5086830;28;20028;-69
2022/11/23 04:38:47;;;;;;;11.20;5.47;;;6.30;99.90;;;;;;5087073;28;20020;-70
2022/11/23 04:41:12;;;;;;;11.65;5.07;;;6.30;99.90;;;;;;5085845;28;20056;-71
2022/11/23 04:43:38;;;;;;;14.27;6.07;;;6.30;99.90;;;;;;5086499;28;20035;-71
2022/11/23 04:46:04;;;;;;;9.43;5.15;;;6.30;99.90;;;;;;5086748;28;20024;-72
2022/11/23 04:48:30;;;;;;;14.07;5.32;;;6.30;99.90;;;;;;5086314;28;20107;-70
2022/11/23 04:50:56;;;;;;;13.90;5.03;;;6.30;99.90;;;;;;5087540;28;20020;-69
2022/11/23 04:53:22;;;;;;;11.88;5.30;;;6.40;99.90;;;;;;5106538;28;20085;-69
2022/11/23 04:55:48;;;;;;;9.77;4.90;;;6.40;99.90;;;;;;5106946;28;20028;-70
2022/11/23 04:58:14;;;;;;;16.50;5.90;;;6.40;99.90;;;;;;5106636;28;20031;-70
2022/11/23 05:00:39;;;;;;;13.40;4.82;;;6.40;99.90;;;;;;5106295;28;20059;-68
2022/11/23 05:03:05;;;;;;;15.63;4.82;;;6.40;99.90;;;;;;5106154;28;20080;-68
2022/11/23 05:05:31;;;;;;;12.55;4.88;;;6.40;99.90;;;;;;5106434;28;20088;-70
2022/11/23 05:07:57;;;;;;;10.95;5.35;;;6.40;99.90;;;;;;5104569;28;20031;-70
2022/11/23 05:10:24;;;;;;;14.60;4.55;;;6.40;99.90;;;;;;5106326;28;20094;-71
2022/11/23 05:12:49;;;;;;;14.38;4.85;;;6.50;99.90;;;;;;5106686;28;20053;-70
2022/11/23 05:15:15;;;;;;;10.23;4.68;;;6.50;99.90;;;;;;5106312;28;20056;-71
2022/11/23 05:17:41;;;;;;;14.52;5.07;;;6.40;99.90;;;;;;5106089;28;20032;-68
2022/11/23 05:20:08;;;;;;;13.68;4.85;;;6.50;99.90;;;;;;5105812;28;20048;-70
2022/11/23 05:22:33;;;;;;;10.13;4.68;;;6.50;99.90;;;;;;5105389;28;20074;-70
2022/11/23 05:24:59;;;;;;;8.10;4.65;;;6.50;99.90;;;;;;5105793;28;20024;-69
2022/11/23 05:27:24;;;;;;;16.50;4.57;;;6.60;99.90;;;;;;5106080;28;20051;-70
2022/11/23 05:29:50;;;;;;;13.68;4.50;;;6.60;99.90;;;;;;5106188;28;20035;-70
2022/11/23 05:32:16;;;;;;;13.73;4.55;;;6.60;99.90;;;;;;5106266;28;20050;-72
2022/11/23 05:34:41;;;;;;;10.23;4.03;;;6.60;99.90;;;;;;5106264;28;20078;-69
2022/11/23 05:37:07;;;;;;;10.45;4.30;;;6.60;99.90;;;;;;5100369;28;20042;-69
2022/11/23 05:39:33;;;;;;;12.13;4.53;;;6.60;99.90;;;;;;5101656;28;20058;-70
2022/11/23 05:41:58;;;;;;;9.40;4.40;;;6.70;99.90;;;;;;5095159;28;20054;-70
2022/11/23 05:44:24;;;;;;;15.75;4.53;;;6.70;99.90;;;;;;5100647;28;20035;-68
2022/11/23 05:46:50;;;;;;;16.00;4.70;;;6.60;99.90;;;;;;5085566;28;20029;-71
2022/11/23 05:49:16;;;;;;;15.48;4.53;;;6.70;99.90;;;;;;5084851;28;20059;-73
2022/11/23 05:51:41;;;;;;;14.00;5.00;;;6.70;99.90;;;;;;5101648;28;20028;-70
2022/11/23 05:54:07;;;;;;;14.68;5.05;;;6.70;99.90;;;;;;5105474;28;20032;-71
2022/11/23 05:56:33;;;;;;;13.85;4.53;;;6.70;99.90;;;;;;5105403;28;20028;-69
2022/11/23 05:58:58;;;;;;;11.05;4.57;;;6.70;99.90;;;;;;5099340;28;20028;-70
2022/11/23 06:01:24;;;;;;;13.32;5.10;;;6.70;99.90;;;;;;5084800;28;20037;-70
2022/11/23 06:03:50;;;;;;;11.60;4.75;;;6.70;99.90;;;;;;5085182;28;20028;-69
2022/11/23 06:06:16;;;;;;;9.07;4.38;;;6.80;99.90;;;;;;5097014;28;20361;-70
2022/11/23 06:08:42;;;;;;;15.63;4.97;;;6.80;99.90;;;;;;5104565;28;20027;-71
2022/11/23 06:11:07;;;;;;;14.70;5.20;;;6.80;99.90;;;;;;5104853;28;20031;-70
2022/11/23 06:13:34;;;;;;;10.82;4.72;;;6.80;99.90;;;;;;5105532;28;20024;-69
2022/11/23 06:15:59;;;;;;;14.15;4.55;;;6.80;99.90;;;;;;5105150;28;20056;-70
2022/11/23 06:18:25;;;;;;;12.20;4.28;;;6.80;99.90;;;;;;5093502;28;20051;-69
2022/11/23 06:20:51;;;;;;;20.80;4.53;;;6.80;99.90;;;;;;5084075;28;20043;-70
2022/11/23 06:23:17;;;;;;;10.25;4.60;;;6.90;99.90;;;;;;5084261;28;20044;-71
2022/11/23 06:25:42;;;;;;;14.95;5.13;;;6.90;99.90;;;;;;5084128;28;20385;-69
2022/11/23 06:28:08;;;;;;;13.25;4.35;;;6.80;99.90;;;;;;5086488;28;20051;-69
2022/11/23 06:30:36;;;;;;;16.63;4.40;;;6.80;99.90;;;;;;5086018;28;20020;-70
2022/11/23 06:33:03;;;;;;;10.65;4.07;;;6.90;99.90;;;;;;5083749;28;20450;-70
2022/11/23 06:35:29;;;;;;;12.35;4.07;;;6.80;99.90;;;;;;5084772;28;20023;-70
2022/11/23 06:37:55;;;;;;;13.32;4.10;;;6.90;99.90;;;;;;5084468;28;20164;-70
2022/11/23 06:40:21;;;;;;;12.13;3.80;;;6.80;99.90;;;;;;5083921;28;20139;-72
2022/11/23 06:42:47;;;;;;;9.43;3.70;;;6.80;99.90;;;;;;5087327;28;20038;-71
2022/11/23 06:45:13;;;;;;;10.40;4.95;;;6.80;99.90;;;;;;5084918;28;20059;-70
2022/11/23 06:47:39;;;;;;;13.20;4.07;;;6.80;99.90;;;;;;5095874;28;20122;-73
2022/11/23 06:50:05;;;;;;;9.65;3.70;;;6.80;99.90;;;;;;5090457;28;20363;-72
2022/11/23 06:52:30;;;;;;;11.50;3.63;;;6.80;99.90;;;;;;5089469;28;20024;-71
2022/11/23 06:54:56;;;;;;;13.70;3.90;;;6.80;99.90;;;;;;5088932;28;20039;-71
2022/11/23 06:57:22;;;;;;;21.70;4.47;;;6.80;99.90;;;;;;5084020;28;20047;-72
2022/11/23 06:59:48;;;;;;;13.77;4.80;;;6.80;99.90;;;;;;5090970;28;20374;-73
2022/11/23 07:02:13;;;;;;;14.65;4.70;;;6.80;99.90;;;;;;5092074;28;20080;-71
2022/11/23 07:04:39;;;;;;;14.95;5.15;;;6.80;99.90;;;;;;5083583;28;20024;-70
2022/11/23 07:07:07;;;;;;;14.23;4.82;;;6.80;99.90;;;;;;5081537;28;20021;-70
2022/11/23 07:09:32;;;;;;;17.23;4.57;;;6.80;99.90;;;;;;5081826;28;20051;-72
2022/11/23 07:11:58;;;;;;;10.57;4.07;;;6.80;99.90;;;;;;5097604;28;20028;-71
2022/11/23 07:14:24;;;;;;;9.75;4.13;;;6.90;99.90;;;;;;5090312;28;20048;-72
2022/11/23 07:16:50;;;;;;;11.90;4.32;;;6.80;99.90;;;;;;5090742;28;20032;-72
2022/11/23 07:19:15;;;;;;;18.73;4.60;;;6.80;99.90;;;;;;5082960;28;20133;-70
2022/11/23 07:21:41;;;;;;;10.20;4.28;;;7.00;99.90;;;;;;5080456;28;20033;-71
2022/11/23 07:24:06;;;;;;;12.07;4.53;;;6.90;99.90;;;;;;5084822;28;20064;-72
2022/11/23 07:26:32;;;;;;;11.10;4.68;;;6.90;99.90;;;;;;5102215;28;20099;-71
2022/11/23 07:28:58;;;;;;;13.10;4.50;;;6.80;99.90;;;;;;5092281;28;20020;-73
2022/11/23 07:31:23;;;;;;;20.58;4.55;;;6.90;99.90;;;;;;5087738;28;20049;-72
2022/11/23 07:33:50;;;;;;;14.82;4.65;;;6.90;99.90;;;;;;5085790;28;20024;-72
2022/11/23 07:36:16;;;;;;;47.58;6.40;;;6.90;99.90;;;;;;5084279;28;20113;-71
2022/11/23 07:38:41;;;;;;;8.43;4.22;;;6.90;99.90;;;;;;5083957;28;20033;-73
2022/11/23 07:41:07;;;;;;;11.73;4.60;;;7.00;99.90;;;;;;5083374;28;20029;-72
2022/11/23 07:43:33;;;;;;;12.60;4.22;;;7.10;99.90;;;;;;5084706;28;20024;-72
2022/11/23 07:45:58;;;;;;;10.57;4.32;;;7.10;99.90;;;;;;5083929;28;20062;-73
2022/11/23 07:48:24;;;;;;;11.63;4.07;;;7.10;99.90;;;;;;5083870;28;20154;-72
2022/11/23 07:50:54;;;;;;;8.60;3.53;;;7.30;99.90;;;;;;5083496;28;20408;-73
2022/11/23 07:53:19;;;;;;;12.20;3.63;;;7.40;99.90;;;;;;5103147;28;20125;-72
2022/11/23 07:55:45;;;;;;;11.00;3.50;;;7.60;99.90;;;;;;5098721;28;20028;-71
2022/11/23 07:58:11;;;;;;;10.80;3.35;;;7.70;99.90;;;;;;5091777;28;20040;-74
2022/11/23 08:00:37;;;;;;;8.85;3.85;;;7.80;99.90;;;;;;5092061;28;20044;-72
2022/11/23 08:03:03;;;;;;;13.68;3.60;;;7.90;99.90;;;;;;5094627;28;20036;-73
2022/11/23 08:05:31;;;;;;;8.38;3.25;;;7.90;99.90;;;;;;5092457;28;20036;-74
2022/11/23 08:08:01;;;;;;;11.48;3.20;;;7.80;99.90;;;;;;5092323;28;20477;-74
2022/11/23 08:10:29;;;;;;;11.80;3.38;;;7.80;99.90;;;;;;5091784;28;20051;-72
2022/11/23 08:13:02;;;;;;;11.93;3.22;;;7.70;99.90;;;;;;5092988;28;20047;-72
2022/11/23 08:15:28;;;;;;;11.35;3.30;;;7.80;99.90;;;;;;5092020;28;20119;-72
2022/11/23 08:17:56;;;;;;;11.52;3.60;;;7.80;99.90;;;;;;5094569;28;20082;-73
2022/11/23 08:20:24;;;;;;;10.25;3.80;;;7.80;99.90;;;;;;5091255;28;20040;-72
2022/11/23 08:22:50;;;;;;;8.27;3.53;;;7.90;99.90;;;;;;5094519;28;20473;-72
2022/11/23 08:25:16;;;;;;;12.05;3.35;;;7.70;99.90;;;;;;5089428;28;20032;-72
2022/11/23 08:27:41;;;;;;;13.02;3.83;;;7.70;99.90;;;;;;5088860;28;20042;-72
2022/11/23 08:30:07;;;;;;;15.60;3.65;;;7.60;99.90;;;;;;5093589;28;20043;-73
2022/11/23 08:32:33;;;;;;;6.38;3.30;;;7.60;99.90;;;;;;5091723;28;20028;-74
2022/11/23 08:34:59;;;;;;;11.35;3.63;;;7.50;99.90;;;;;;5086381;28;20031;-72
2022/11/23 08:37:24;;;;;;;16.35;3.40;;;7.50;99.90;;;;;;5086164;28;20095;-73
2022/11/23 08:39:50;;;;;;;9.98;3.28;;;7.50;99.90;;;;;;5091644;28;20040;-74
2022/11/23 08:42:16;;;;;;;9.55;4.13;;;7.40;99.90;;;;;;5088704;28;20093;-72
2022/11/23 08:44:41;;;;;;;8.70;3.42;;;7.40;99.90;;;;;;5091547;28;20027;-71
2022/11/23 08:47:07;;;;;;;7.13;3.17;;;7.40;99.90;;;;;;5093262;28;20480;-71
2022/11/23 08:49:32;;;;;;;5.88;3.13;;;7.30;99.90;;;;;;5089060;28;20062;-71
2022/11/23 08:51:59;;;;;;;9.20;3.75;;;7.30;99.90;;;;;;5089508;28;20020;-71
2022/11/23 08:54:25;;;;;;;8.70;3.83;;;7.20;99.90;;;;;;5085152;28;20024;-71
2022/11/23 08:56:51;;;;;;;12.60;4.30;;;7.30;99.90;;;;;;5086874;28;20036;-72
2022/11/23 08:59:17;;;;;;;12.88;3.95;;;7.30;99.90;;;;;;5093456;28;20112;-74
2022/11/23 09:01:43;;;;;;;7.55;3.85;;;7.30;99.90;;;;;;5091595;28;20316;-74
2022/11/23 09:04:09;;;;;;;9.15;3.88;;;7.30;99.90;;;;;;5090063;28;20021;-72
2022/11/23 09:06:35;;;;;;;8.93;3.55;;;7.30;99.90;;;;;;5092865;28;20063;-72
2022/11/23 09:09:01;;;;;;;13.50;4.00;;;7.30;99.90;;;;;;5084573;28;20039;-72
2022/11/23 09:11:27;;;;;;;11.63;3.92;;;7.30;99.90;;;;;;5099070;28;20028;-70
2022/11/23 09:13:52;;;;;;;13.10;4.05;;;7.30;99.90;;;;;;5098962;28;20035;-74
2022/11/23 09:16:19;;;;;;;7.88;3.25;;;7.30;99.90;;;;;;5104151;28;20020;-71
2022/11/23 09:18:45;;;;;;;11.90;3.72;;;7.30;99.90;;;;;;5096794;28;20024;-72
2022/11/23 09:21:11;;;;;;;17.58;4.03;;;7.50;99.90;;;;;;5089795;28;20041;-71
2022/11/23 09:23:40;;;;;;;10.02;3.50;;;7.40;99.90;;;;;;5084587;28;20094;-73
2022/11/23 09:26:05;;;;;;;12.23;3.67;;;7.50;99.90;;;;;;5092683;28;20024;-70
2022/11/23 09:28:32;;;;;;;8.95;3.45;;;7.50;99.90;;;;;;5091569;28;20087;-71
2022/11/23 09:31:00;;;;;;;13.50;3.45;;;7.50;99.90;;;;;;5086405;28;20025;-71
2022/11/23 09:33:26;;;;;;;10.30;3.63;;;7.50;99.90;;;;;;5102676;28;20031;-75
2022/11/23 09:35:59;;;;;;;7.55;3.10;;;7.60;99.90;;;;;;5093963;28;20053;-70
2022/11/23 09:38:26;;;;;;;13.55;3.58;;;7.50;99.90;;;;;;5091077;28;20020;-71
2022/11/23 09:41:07;;;;;;;10.85;3.70;;;7.60;99.90;;;;;;5083675;28;20096;-70
2022/11/23 09:43:45;;;;;;;11.25;4.30;;;7.60;99.90;;;;;;5092426;28;20492;-71
2022/11/23 09:46:32;;;;;;;10.27;3.97;;;7.60;99.90;;;;;;5091564;28;20040;-71
2022/11/23 09:49:09;;;;;;;10.63;4.07;;;7.70;99.90;;;;;;5089431;28;20028;-68
2022/11/23 09:51:37;;;;;;;10.35;4.25;;;7.70;99.90;;;;;;5088712;28;20033;-72
2022/11/23 09:54:29;;;;;;;10.18;3.80;;;7.70;99.90;;;;;;5085774;28;20122;-72
2022/11/23 09:56:57;;;;;;;10.52;4.13;;;7.80;99.90;;;;;;5093616;28;20054;-71
2022/11/23 09:59:43;;;;;;;10.02;4.18;;;7.80;99.90;;;;;;5085593;28;20483;-72
2022/11/23 10:02:31;;;;;;;16.10;4.43;;;7.80;99.90;;;;;;5083434;28;20500;-73
2022/11/23 10:04:59;;;;;;;18.15;3.92;;;7.80;99.90;;;;;;5083661;28;20034;-72
2022/11/23 10:07:46;;;;;;;7.88;3.63;;;7.90;99.90;;;;;;5090661;28;20029;-73
2022/11/23 10:10:37;;;;;;;7.82;3.83;;;7.90;99.90;;;;;;5087308;28;20472;-73
2022/11/23 10:13:10;;;;;;;13.40;4.10;;;7.90;99.90;;;;;;5081879;28;20119;-72
2022/11/23 10:15:44;;;;;;;16.38;4.80;;;8.10;99.90;;;;;;5086134;28;20021;-72
2022/11/23 10:18:45;;;;;;;10.02;4.80;;;8.10;99.90;;;;;;5095916;28;20040;-71
2022/11/23 10:21:34;;;;;;;13.98;4.55;;;8.20;99.90;;;;;;5093242;28;20044;-71
2022/11/23 10:24:24;;;;;;;18.40;5.05;;;8.20;99.90;;;;;;5049421;28;20044;-73
2022/11/23 10:26:50;;;;;;;15.48;4.63;;;8.20;99.90;;;;;;5097744;28;20045;-73
2022/11/23 10:29:29;;;;;;;14.50;4.30;;;8.30;99.90;;;;;;5101271;28;20740;-72
2022/11/23 10:31:56;;;;;;;14.82;4.32;;;8.40;99.90;;;;;;5102258;28;20032;-72
2022/11/23 10:34:37;;;;;;;11.25;3.75;;;8.40;99.90;;;;;;5102305;28;20039;-70
2022/11/23 10:37:14;;;;;;;10.43;3.92;;;8.40;99.90;;;;;;5084540;28;20800;-70
2022/11/23 10:39:40;;;;;;;10.27;3.63;;;8.40;99.90;;;;;;5096234;28;20934;-70
2022/11/23 10:42:27;;;;;;;11.85;3.42;;;8.50;99.90;;;;;;5083855;28;20033;-70
2022/11/23 10:44:55;;;;;;;10.90;4.20;;;8.50;99.90;;;;;;5100921;28;20028;-70
2022/11/23 10:47:57;;;;;;;10.75;4.00;;;8.60;99.90;;;;;;5087816;28;20167;-69
2022/11/23 10:50:25;;;;;;;13.07;3.85;;;8.60;99.90;;;;;;5089389;28;20025;-69
2022/11/23 10:52:59;;;;;;;15.13;4.30;;;8.70;99.90;;;;;;5084211;28;20048;-71
2022/11/23 10:55:45;;;;;;;10.52;4.15;;;8.60;99.90;;;;;;5092290;28;20063;-69
2022/11/23 10:58:34;;;;;;;12.52;4.13;;;8.70;99.90;;;;;;5087729;28;20045;-70
2022/11/23 11:01:15;;;;;;;13.77;3.95;;;8.70;99.90;;;;;;5093373;28;20036;-72
2022/11/23 11:03:41;;;;;;;11.65;4.00;;;8.80;99.90;;;;;;5084102;28;20085;-70
2022/11/23 11:06:07;;;;;;;10.35;3.45;;;8.80;99.90;;;;;;5091198;28;20020;-70
2022/11/23 11:08:34;;;;;;;10.57;3.72;;;8.80;99.90;;;;;;5089991;28;20028;-70
2022/11/23 11:11:07;;;;;;;11.60;3.65;;;8.80;99.90;;;;;;5091094;28;20017;-69
2022/11/23 11:13:39;;;;;;;9.82;3.67;;;8.90;99.90;;;;;;5086133;28;20024;-71
2022/11/23 11:16:26;;;;;;;14.80;3.83;;;8.90;99.90;;;;;;5099888;28;20077;-70
2022/11/23 11:18:52;;;;;;;7.78;3.45;;;8.90;99.90;;;;;;5081552;28;20155;-70
2022/11/23 11:21:19;;;;;;;15.75;3.67;;;9.20;99.90;;;;;;5085301;28;20523;-68
2022/11/23 11:24:04;;;;;;;12.27;4.10;;;9.30;99.90;;;;;;5089731;28;20079;-70
2022/11/23 11:26:32;;;;;;;6.95;3.35;;;9.30;99.90;;;;;;5091393;28;20036;-68
2022/11/23 11:29:04;;;;;;;8.82;3.97;;;9.40;99.90;;;;;;5084371;28;20044;-70
2022/11/23 11:31:51;;;;;;;9.38;3.88;;;9.30;99.90;;;;;;5080367;28;20029;-70
2022/11/23 11:34:45;;;;;;;17.17;4.07;;;9.30;99.90;;;;;;5087775;28;20012;-71
2022/11/23 11:37:41;;;;;;;7.82;3.40;;;9.30;99.90;;;;;;5102489;28;20093;-71
2022/11/23 11:40:38;;;;;;;8.35;3.75;;;9.30;99.90;;;;;;5085025;28;20036;-69
2022/11/23 11:43:12;;;;;;;6.72;3.75;;;9.20;99.90;;;;;;5095901;28;20036;-72
2022/11/23 11:45:47;;;;;;;11.73;4.03;;;9.20;99.90;;;;;;5097998;28;20087;-71
2022/11/23 11:48:19;;;;;;;11.80;4.63;;;9.30;99.90;;;;;;5097793;28;20066;-70
2022/11/23 11:50:48;;;;;;;8.70;3.53;;;9.30;99.90;;;;;;5102907;28;20028;-73
2022/11/23 11:53:29;;;;;;;16.92;4.47;;;9.30;99.90;;;;;;5105507;28;20047;-72
2022/11/23 11:56:05;;;;;;;10.68;3.47;;;9.30;99.90;;;;;;5099544;28;20032;-72
2022/11/23 11:58:34;;;;;;;16.27;4.20;;;9.30;99.90;;;;;;5096448;28;20491;-73
2022/11/23 12:01:16;;;;;;;9.93;4.88;;;9.30;99.90;;;;;;5091521;28;20032;-71
2022/11/23 12:03:50;;;;;;;8.73;4.30;;;9.30;99.90;;;;;;5089822;28;20028;-71
2022/11/23 12:06:42;;;;;;;8.95;3.92;;;9.30;99.90;;;;;;5099345;28;20070;-71
2022/11/23 12:09:18;;;;;;;17.63;4.13;;;9.30;99.90;;;;;;5099372;28;20050;-71
2022/11/23 12:11:44;;;;;;;21.13;4.97;;;9.40;99.90;;;;;;5090953;28;20082;-70
2022/11/23 12:14:14;;;;;;;16.90;4.57;;;9.40;99.90;;;;;;5087974;28;20048;-70
2022/11/23 12:17:20;;;;;;;10.93;4.05;;;9.40;99.90;;;;;;5093299;28;20081;-69
2022/11/23 12:20:03;;;;;;;10.40;3.53;;;9.40;99.90;;;;;;5095725;28;20044;-69
2022/11/23 12:22:53;;;;;;;12.25;3.88;;;9.40;99.90;;;;;;5096921;28;20135;-70
2022/11/23 12:25:27;;;;;;;12.40;3.88;;;9.40;99.90;;;;;;5093570;28;20040;-71
2022/11/23 12:27:59;;;;;;;9.63;4.07;;;9.40;99.90;;;;;;5088964;28;20036;-71
2022/11/23 12:30:41;;;;;;;11.65;4.18;;;9.40;99.90;;;;;;5097702;28;20040;-70
2022/11/23 12:33:39;;;;;;;17.67;4.20;;;9.40;99.90;;;;;;5106496;28;20020;-71
2022/11/23 12:36:44;;;;;;;15.23;4.07;;;9.50;99.90;;;;;;5106428;28;20031;-70
2022/11/23 12:39:23;;;;;;;12.35;4.35;;;9.50;99.90;;;;;;5100179;28;20028;-68
2022/11/23 12:42:15;;;;;;;14.38;3.75;;;9.50;99.90;;;;;;5096278;28;20527;-69
2022/11/23 12:44:50;;;;;;;12.57;4.38;;;9.60;99.90;;;;;;5086470;28;20028;-70
2022/11/23 12:47:40;;;;;;;12.55;3.58;;;9.60;99.90;;;;;;5086507;28;20038;-69
2022/11/23 12:50:21;;;;;;;16.67;4.03;;;9.70;99.90;;;;;;5085986;28;20492;-69
2022/11/23 12:52:58;;;;;;;13.13;3.72;;;9.70;99.90;;;;;;5086078;28;20125;-70
2022/11/23 12:55:29;;;;;;;9.85;3.78;;;9.80;99.90;;;;;;5098530;28;20040;-70
2022/11/23 12:58:08;;;;;;;15.30;3.78;;;9.80;99.90;;;;;;5092290;28;20032;-71
2022/11/23 13:00:40;;;;;;;15.10;3.85;;;9.90;99.90;;;;;;5091200;28;20063;-70